Summary for RAINWISE1

Rainwise Factory, Bar Harbor, ME 04609
Join the PWSweather.com Network
View data in metric units
Latest Conditions
Updated 1:50:00 PM EDT Tuesday, Sep 30, 2014
Data Currently Today's Max Today's Min Today's Average
Temperature 52.7°F11.5°C 52.7°F11.5°C 48.3°F9.1°C 49.8°F9.9°C
Dew Point 52.7°F11.5°C 52.7°F11.5°C 48.3°F9.1°C 49.8°F9.9°C
Winds 2.3 mph NNE3.7 kmh NNE 5.2 mph NNE8.4 kmh NNE 0.4 mph0.6 kmh 2.8 mph4.5 kmh
Wind Gusts 5.5 mph8.9 kmh 10.3 mph16.6 kmh 2.7 mph4.3 kmh 6.4 mph10.3 kmh
Humidity 100% 100% 99% 100%
Pressure 30.14 in1020.7 mb 30.17 in1021.7 mb 30.13 in1020.3 mb 30.15 in1021.0 mb
Precipitation 0.02 in0.5 mm - - 0.00 in0.0 mm
Trends
 
Station Profile
Rainwise FactoryBar Harbor, ME 04609

Lat: 44.39, Lon: -68.208
Elevation: 29
Station Type: Rainwise MK-III

Detailed Summary for Tue, Sep 30, 2014
Hour (EDT) Temperature Dew Point Humidity Winds Wind Gusts Pressure Precip Precip Rate Daily Precip Total
01:50 PM 52.7°F11.5°C 52.7°F11.5°C 100% 2.3 mph NNE3.7 kmh NNE 5.5 mph8.9 kmh 30.14 in1020.7 mb 0.00 in0.0 mm 0.00 in/hr0.0 mm/hr 0.02 in0.5 mm
01:45 PM 52.7°F11.5°C 52.3°F11.3°C 99% 3.4 mph NNE5.5 kmh NNE 7.0 mph11.3 kmh 30.14 in1020.7 mb 0.00 in0.0 mm 0.00 in/hr0.0 mm/hr 0.02 in0.5 mm
01:40 PM 52.5°F11.4°C 52.1°F11.2°C 99% 2.5 mph NNE4.0 kmh NNE 4.7 mph7.6 kmh 30.14 in1020.7 mb 0.00 in0.0 mm 0.00 in/hr0.0 mm/hr 0.02 in0.5 mm
01:35 PM 52.2°F11.2°C 52.2°F11.2°C 100% 3.5 mph NE5.6 kmh NE 6.0 mph9.7 kmh 30.14 in1020.7 mb 0.00 in0.0 mm 0.00 in/hr0.0 mm/hr 0.02 in0.5 mm
01:30 PM 52.1°F11.2°C 52.1°F11.2°C 100% 3.6 mph N5.8 kmh N 7.9 mph12.7 kmh 30.14 in1020.7 mb 0.00 in0.0 mm 0.00 in/hr0.0 mm/hr 0.02 in0.5 mm
01:25 PM 52.0°F11.1°C 52.0°F11.1°C 100% 2.8 mph NE4.5 kmh NE 5.7 mph9.2 kmh 30.14 in1020.7 mb 0.00 in0.0 mm 0.00 in/hr0.0 mm/hr 0.02 in0.5 mm
01:20 PM 52.0°F11.1°C 52.0°F11.1°C 100% 3.5 mph N5.6 kmh N 6.2 mph10.0 kmh 30.15 in1021.0 mb 0.00 in0.0 mm 0.00 in/hr0.0 mm/hr 0.02 in0.5 mm
01:15 PM 51.9°F11.1°C 51.9°F11.1°C 100% 3.6 mph NE5.8 kmh NE 6.2 mph10.0 kmh 30.15 in1021.0 mb 0.00 in0.0 mm 0.00 in/hr0.0 mm/hr 0.02 in0.5 mm
01:10 PM 52.0°F11.1°C 52.0°F11.1°C 100% 2.9 mph NNE4.7 kmh NNE 5.5 mph8.9 kmh 30.15 in1021.0 mb 0.00 in0.0 mm 0.00 in/hr0.0 mm/hr 0.02 in0.5 mm
01:05 PM 52.1°F11.2°C 52.1°F11.2°C 100% 3.1 mph NNE5.0 kmh NNE 5.7 mph9.2 kmh 30.15 in1021.0 mb 0.00 in0.0 mm 0.00 in/hr0.0 mm/hr 0.02 in0.5 mm
01:00 PM 52.2°F11.2°C 52.2°F11.2°C 100% 2.0 mph NNE3.2 kmh NNE 5.0 mph8.0 kmh 30.14 in1020.7 mb 0.00 in0.0 mm 0.00 in/hr0.0 mm/hr 0.02 in0.5 mm
12:55 PM 52.3°F11.3°C 52.3°F11.3°C 100% 2.8 mph NE4.5 kmh NE 7.2 mph11.6 kmh 30.15 in1021.0 mb 0.00 in0.0 mm 0.00 in/hr0.0 mm/hr 0.02 in0.5 mm
12:50 PM 52.1°F11.2°C 52.1°F11.2°C 100% 2.9 mph NNW4.7 kmh NNW 7.0 mph11.3 kmh 30.15 in1021.0 mb 0.00 in0.0 mm 0.00 in/hr0.0 mm/hr 0.02 in0.5 mm
12:45 PM 51.6°F10.9°C 51.6°F10.9°C 100% 2.4 mph E3.9 kmh E 5.4 mph8.7 kmh 30.14 in1020.7 mb 0.00 in0.0 mm 0.00 in/hr0.0 mm/hr 0.02 in0.5 mm
12:40 PM 51.3°F10.7°C 51.3°F10.7°C 100% 3.3 mph N5.3 kmh N 7.7 mph12.4 kmh 30.15 in1021.0 mb 0.00 in0.0 mm 0.00 in/hr0.0 mm/hr 0.02 in0.5 mm
12:35 PM 51.1°F10.6°C 51.1°F10.6°C 100% 3.2 mph N5.1 kmh N 7.7 mph12.4 kmh 30.15 in1021.0 mb 0.00 in0.0 mm 0.00 in/hr0.0 mm/hr 0.02 in0.5 mm
12:30 PM 51.0°F10.6°C 51.0°F10.6°C 100% 4.0 mph NNE6.4 kmh NNE 8.5 mph13.7 kmh 30.15 in1021.0 mb 0.00 in0.0 mm 0.00 in/hr0.0 mm/hr 0.02 in0.5 mm
12:25 PM 51.1°F10.6°C 51.1°F10.6°C 100% 3.6 mph NNE5.8 kmh NNE 6.7 mph10.8 kmh 30.15 in1021.0 mb 0.00 in0.0 mm 0.00 in/hr0.0 mm/hr 0.02 in0.5 mm
12:20 PM 51.2°F10.7°C 51.2°F10.7°C 100% 4.3 mph NE6.9 kmh NE 7.7 mph12.4 kmh 30.15 in1021.0 mb 0.00 in0.0 mm 0.00 in/hr0.0 mm/hr 0.02 in0.5 mm
12:15 PM 51.4°F10.8°C 51.4°F10.8°C 100% 3.5 mph NNE5.6 kmh NNE 7.2 mph11.6 kmh 30.15 in1021.0 mb 0.00 in0.0 mm 0.00 in/hr0.0 mm/hr 0.02 in0.5 mm
12:10 PM 51.7°F10.9°C 51.7°F10.9°C 100% 3.0 mph NE4.8 kmh NE 6.7 mph10.8 kmh 30.15 in1021.0 mb 0.00 in0.0 mm 0.00 in/hr0.0 mm/hr 0.02 in0.5 mm
12:05 PM 51.7°F10.9°C 51.7°F10.9°C 100% 4.2 mph N6.8 kmh N 8.1 mph13.0 kmh 30.15 in1021.0 mb 0.00 in0.0 mm 0.00 in/hr0.0 mm/hr 0.02 in0.5 mm
12:00 PM 51.7°F10.9°C 51.7°F10.9°C 100% 2.9 mph NNE4.7 kmh NNE 5.4 mph8.7 kmh 30.15 in1021.0 mb 0.00 in0.0 mm 0.00 in/hr0.0 mm/hr 0.02 in0.5 mm
11:55 AM 51.6°F10.9°C 51.6°F10.9°C 100% 2.5 mph NE4.0 kmh NE 4.7 mph7.6 kmh 30.15 in1021.0 mb 0.00 in0.0 mm 0.00 in/hr0.0 mm/hr 0.02 in0.5 mm
11:50 AM 51.4°F10.8°C 51.4°F10.8°C 100% 4.2 mph N6.8 kmh N 10.0 mph16.1 kmh 30.15 in1021.0 mb 0.00 in0.0 mm 0.00 in/hr0.0 mm/hr 0.02 in0.5 mm
11:45 AM 51.3°F10.7°C 51.3°F10.7°C 100% 3.7 mph NE6.0 kmh NE 7.2 mph11.6 kmh 30.15 in1021.0 mb 0.00 in0.0 mm 0.00 in/hr0.0 mm/hr 0.02 in0.5 mm
11:40 AM 51.2°F10.7°C 51.2°F10.7°C 100% 0.7 mph NNE1.1 kmh NNE 3.0 mph4.8 kmh 30.15 in1021.0 mb 0.00 in0.0 mm 0.00 in/hr0.0 mm/hr 0.02 in0.5 mm
11:35 AM 51.1°F10.6°C 51.1°F10.6°C 100% 3.0 mph NNE4.8 kmh NNE 6.5 mph10.5 kmh 30.15 in1021.0 mb 0.00 in0.0 mm 0.00 in/hr0.0 mm/hr 0.02 in0.5 mm
11:30 AM 51.0°F10.6°C 51.0°F10.6°C 100% 2.9 mph NNE4.7 kmh NNE 5.4 mph8.7 kmh 30.16 in1021.3 mb 0.00 in0.0 mm 0.00 in/hr0.0 mm/hr 0.02 in0.5 mm
11:25 AM 51.0°F10.6°C 51.0°F10.6°C 100% 4.3 mph NNE6.9 kmh NNE 6.7 mph10.8 kmh 30.16 in1021.3 mb 0.00 in0.0 mm 0.00 in/hr0.0 mm/hr 0.02 in0.5 mm
11:20 AM 51.0°F10.6°C 51.0°F10.6°C 100% 3.6 mph NNE5.8 kmh NNE 6.5 mph10.5 kmh 30.16 in1021.3 mb 0.00 in0.0 mm 0.00 in/hr0.0 mm/hr 0.02 in0.5 mm
11:15 AM 51.2°F10.7°C 51.2°F10.7°C 100% 3.7 mph NNE6.0 kmh NNE 7.7 mph12.4 kmh 30.16 in1021.3 mb 0.00 in0.0 mm 0.00 in/hr0.0 mm/hr 0.02 in0.5 mm
11:10 AM 51.2°F10.7°C 51.2°F10.7°C 100% 3.8 mph NNE6.1 kmh NNE 7.0 mph11.3 kmh 30.16 in1021.3 mb 0.00 in0.0 mm 0.00 in/hr0.0 mm/hr 0.02 in0.5 mm
11:05 AM 51.0°F10.6°C 51.0°F10.6°C 100% 3.1 mph NE5.0 kmh NE 5.4 mph8.7 kmh 30.16 in1021.3 mb 0.00 in0.0 mm 0.00 in/hr0.0 mm/hr 0.02 in0.5 mm
11:00 AM 51.1°F10.6°C 51.1°F10.6°C 100% 2.8 mph NE4.5 kmh NE 5.5 mph8.9 kmh 30.16 in1021.3 mb 0.00 in0.0 mm 0.00 in/hr0.0 mm/hr 0.02 in0.5 mm
10:55 AM 51.1°F10.6°C 51.1°F10.6°C 100% 4.2 mph NE6.8 kmh NE 8.1 mph13.0 kmh 30.16 in1021.3 mb 0.00 in0.0 mm 0.00 in/hr0.0 mm/hr 0.02 in0.5 mm
10:50 AM 50.8°F10.4°C 50.8°F10.4°C 100% 4.0 mph NNE6.4 kmh NNE 7.9 mph12.7 kmh 30.16 in1021.3 mb 0.00 in0.0 mm 0.00 in/hr0.0 mm/hr 0.02 in0.5 mm
10:45 AM 50.7°F10.4°C 50.7°F10.4°C 100% 3.5 mph N5.6 kmh N 7.0 mph11.3 kmh 30.16 in1021.3 mb 0.00 in0.0 mm 0.00 in/hr0.0 mm/hr 0.02 in0.5 mm
10:40 AM 50.5°F10.3°C 50.5°F10.3°C 100% 3.1 mph NE5.0 kmh NE 6.2 mph10.0 kmh 30.16 in1021.3 mb 0.00 in0.0 mm 0.00 in/hr0.0 mm/hr 0.02 in0.5 mm
10:35 AM 50.3°F10.2°C 49.9°F9.9°C 99% 2.8 mph N4.5 kmh N 5.7 mph9.2 kmh 30.16 in1021.3 mb 0.00 in0.0 mm 0.00 in/hr0.0 mm/hr 0.02 in0.5 mm
10:30 AM 50.3°F10.2°C 50.3°F10.2°C 100% 4.4 mph NNE7.1 kmh NNE 7.7 mph12.4 kmh 30.16 in1021.3 mb 0.00 in0.0 mm 0.00 in/hr0.0 mm/hr 0.02 in0.5 mm
10:25 AM 50.3°F10.2°C 50.3°F10.2°C 100% 4.7 mph N7.6 kmh N 9.3 mph15.0 kmh 30.16 in1021.3 mb 0.00 in0.0 mm 0.00 in/hr0.0 mm/hr 0.02 in0.5 mm
10:20 AM 50.2°F10.1°C 50.2°F10.1°C 100% 3.6 mph NNE5.8 kmh NNE 7.9 mph12.7 kmh 30.16 in1021.3 mb 0.00 in0.0 mm 0.00 in/hr0.0 mm/hr 0.02 in0.5 mm
10:15 AM 50.0°F10.0°C 50.0°F10.0°C 100% 3.1 mph NE5.0 kmh NE 7.0 mph11.3 kmh 30.16 in1021.3 mb 0.00 in0.0 mm 0.00 in/hr0.0 mm/hr 0.02 in0.5 mm
10:10 AM 50.0°F10.0°C 50.0°F10.0°C 100% 2.1 mph ENE3.4 kmh ENE 4.0 mph6.4 kmh 30.16 in1021.3 mb 0.00 in0.0 mm 0.00 in/hr0.0 mm/hr 0.02 in0.5 mm
10:05 AM 50.0°F10.0°C 50.0°F10.0°C 100% 2.9 mph NNE4.7 kmh NNE 6.2 mph10.0 kmh 30.16 in1021.3 mb 0.00 in0.0 mm 0.00 in/hr0.0 mm/hr 0.02 in0.5 mm
10:00 AM 49.9°F9.9°C 49.9°F9.9°C 100% 3.8 mph NNE6.1 kmh NNE 7.5 mph12.1 kmh 30.17 in1021.7 mb 0.00 in0.0 mm 0.00 in/hr0.0 mm/hr 0.02 in0.5 mm
09:55 AM 49.8°F9.9°C 49.8°F9.9°C 100% 2.5 mph NE4.0 kmh NE 6.5 mph10.5 kmh 30.16 in1021.3 mb 0.00 in0.0 mm 0.00 in/hr0.0 mm/hr 0.02 in0.5 mm
09:50 AM 49.7°F9.8°C 49.7°F9.8°C 100% 2.3 mph ENE3.7 kmh ENE 6.2 mph10.0 kmh 30.17 in1021.7 mb 0.00 in0.0 mm 0.00 in/hr0.0 mm/hr 0.02 in0.5 mm
09:45 AM 49.7°F9.8°C 49.7°F9.8°C 100% 3.9 mph NE6.3 kmh NE 6.2 mph10.0 kmh 30.17 in1021.7 mb 0.00 in0.0 mm 0.00 in/hr0.0 mm/hr 0.02 in0.5 mm
09:40 AM 49.7°F9.8°C 49.7°F9.8°C 100% 3.4 mph NE5.5 kmh NE 6.5 mph10.5 kmh 30.17 in1021.7 mb 0.00 in0.0 mm 0.00 in/hr0.0 mm/hr 0.02 in0.5 mm
09:35 AM 49.7°F9.8°C 49.7°F9.8°C 100% 3.9 mph N6.3 kmh N 8.1 mph13.0 kmh 30.16 in1021.3 mb 0.00 in0.0 mm 0.00 in/hr0.0 mm/hr 0.02 in0.5 mm
09:30 AM 49.7°F9.8°C 49.7°F9.8°C 100% 2.6 mph NNE4.2 kmh NNE 7.2 mph11.6 kmh 30.16 in1021.3 mb 0.00 in0.0 mm 0.00 in/hr0.0 mm/hr 0.02 in0.5 mm
09:25 AM 49.5°F9.7°C 49.5°F9.7°C 100% 3.9 mph NNE6.3 kmh NNE 10.0 mph16.1 kmh 30.16 in1021.3 mb 0.00 in0.0 mm 0.00 in/hr0.0 mm/hr 0.02 in0.5 mm
09:20 AM 49.3°F9.6°C 49.3°F9.6°C 100% 3.6 mph NE5.8 kmh NE 9.0 mph14.5 kmh 30.15 in1021.0 mb 0.00 in0.0 mm 0.00 in/hr0.0 mm/hr 0.02 in0.5 mm
09:15 AM 49.3°F9.6°C 49.3°F9.6°C 100% 4.2 mph NE6.8 kmh NE 8.5 mph13.7 kmh 30.15 in1021.0 mb 0.00 in0.0 mm 0.00 in/hr0.0 mm/hr 0.02 in0.5 mm
09:10 AM 49.2°F9.6°C 49.2°F9.6°C 100% 4.8 mph NE7.7 kmh NE 9.3 mph15.0 kmh 30.15 in1021.0 mb 0.00 in0.0 mm 0.00 in/hr0.0 mm/hr 0.02 in0.5 mm
09:05 AM 49.2°F9.6°C 49.2°F9.6°C 100% 5.2 mph NNE8.4 kmh NNE 10.3 mph16.6 kmh 30.16 in1021.3 mb 0.00 in0.0 mm 0.00 in/hr0.0 mm/hr 0.02 in0.5 mm
09:00 AM 49.1°F9.5°C 49.1°F9.5°C 100% 5.2 mph NE8.4 kmh NE 9.5 mph15.3 kmh 30.16 in1021.3 mb 0.00 in0.0 mm 0.00 in/hr0.0 mm/hr 0.02 in0.5 mm
08:55 AM 49.0°F9.4°C 49.0°F9.4°C 100% 5.2 mph N8.4 kmh N 9.3 mph15.0 kmh 30.16 in1021.3 mb 0.00 in0.0 mm 0.00 in/hr0.0 mm/hr 0.02 in0.5 mm
08:50 AM 49.1°F9.5°C 49.1°F9.5°C 100% 4.4 mph NE7.1 kmh NE 7.7 mph12.4 kmh 30.16 in1021.3 mb 0.00 in0.0 mm 0.00 in/hr0.0 mm/hr 0.02 in0.5 mm
08:45 AM 49.0°F9.4°C 49.0°F9.4°C 100% 5.0 mph NE8.0 kmh NE 9.0 mph14.5 kmh 30.16 in1021.3 mb 0.00 in0.0 mm 0.00 in/hr0.0 mm/hr 0.02 in0.5 mm
08:40 AM 48.9°F9.4°C 48.9°F9.4°C 100% 3.7 mph N6.0 kmh N 8.9 mph14.3 kmh 30.16 in1021.3 mb 0.00 in0.0 mm 0.00 in/hr0.0 mm/hr 0.02 in0.5 mm
08:35 AM 48.8°F9.3°C 48.8°F9.3°C 100% 3.6 mph NE5.8 kmh NE 7.7 mph12.4 kmh 30.16 in1021.3 mb 0.00 in0.0 mm 0.00 in/hr0.0 mm/hr 0.02 in0.5 mm
08:30 AM 48.7°F9.3°C 48.7°F9.3°C 100% 2.9 mph NNE4.7 kmh NNE 8.1 mph13.0 kmh 30.16 in1021.3 mb 0.00 in0.0 mm 0.00 in/hr0.0 mm/hr 0.02 in0.5 mm
08:25 AM 48.6°F9.2°C 48.6°F9.2°C 100% 3.6 mph NNE5.8 kmh NNE 6.0 mph9.7 kmh 30.16 in1021.3 mb 0.00 in0.0 mm 0.00 in/hr0.0 mm/hr 0.02 in0.5 mm
08:20 AM 48.4°F9.1°C 48.4°F9.1°C 100% 3.1 mph NNW5.0 kmh NNW 6.7 mph10.8 kmh 30.16 in1021.3 mb 0.00 in0.0 mm 0.00 in/hr0.0 mm/hr 0.02 in0.5 mm
08:15 AM 48.3°F9.1°C 48.3°F9.1°C 100% 4.0 mph NNE6.4 kmh NNE 8.1 mph13.0 kmh 30.16 in1021.3 mb 0.00 in0.0 mm 0.00 in/hr0.0 mm/hr 0.02 in0.5 mm
08:10 AM 48.3°F9.1°C 48.3°F9.1°C 100% 4.6 mph N7.4 kmh N 9.0 mph14.5 kmh 30.16 in1021.3 mb 0.00 in0.0 mm 0.00 in/hr0.0 mm/hr 0.02 in0.5 mm
08:05 AM 48.3°F9.1°C 48.3°F9.1°C 100% 3.7 mph NE6.0 kmh NE 6.5 mph10.5 kmh 30.16 in1021.3 mb 0.00 in0.0 mm 0.00 in/hr0.0 mm/hr 0.02 in0.5 mm
08:00 AM 48.3°F9.1°C 48.3°F9.1°C 100% 3.4 mph NE5.5 kmh NE 7.0 mph11.3 kmh 30.16 in1021.3 mb 0.00 in0.0 mm 0.00 in/hr0.0 mm/hr 0.02 in0.5 mm
07:55 AM 48.3°F9.1°C 48.3°F9.1°C 100% 4.8 mph NNE7.7 kmh NNE 10.0 mph16.1 kmh 30.16 in1021.3 mb 0.00 in0.0 mm 0.00 in/hr0.0 mm/hr 0.02 in0.5 mm
07:50 AM 48.3°F9.1°C 48.3°F9.1°C 100% 4.5 mph N7.2 kmh N 9.8 mph15.8 kmh 30.16 in1021.3 mb 0.00 in0.0 mm 0.00 in/hr0.0 mm/hr 0.02 in0.5 mm
07:45 AM 48.3°F9.1°C 48.3°F9.1°C 100% 3.1 mph N5.0 kmh N 5.7 mph9.2 kmh 30.16 in1021.3 mb 0.00 in0.0 mm 0.00 in/hr0.0 mm/hr 0.02 in0.5 mm
07:40 AM 48.5°F9.2°C 48.5°F9.2°C 100% 3.5 mph NNE5.6 kmh NNE 7.5 mph12.1 kmh 30.16 in1021.3 mb 0.00 in0.0 mm 0.00 in/hr0.0 mm/hr 0.02 in0.5 mm
07:35 AM 48.5°F9.2°C 48.5°F9.2°C 100% 4.1 mph NNE6.6 kmh NNE 7.0 mph11.3 kmh 30.17 in1021.7 mb 0.00 in0.0 mm 0.00 in/hr0.0 mm/hr 0.02 in0.5 mm
07:30 AM 48.5°F9.2°C 48.5°F9.2°C 100% 2.5 mph NE4.0 kmh NE 5.0 mph8.0 kmh 30.16 in1021.3 mb 0.00 in0.0 mm 0.00 in/hr0.0 mm/hr 0.02 in0.5 mm
07:25 AM 48.5°F9.2°C 48.5°F9.2°C 100% 3.4 mph N5.5 kmh N 7.2 mph11.6 kmh 30.16 in1021.3 mb 0.00 in0.0 mm 0.00 in/hr0.0 mm/hr 0.02 in0.5 mm
07:20 AM 48.6°F9.2°C 48.6°F9.2°C 100% 2.4 mph NNE3.9 kmh NNE 5.4 mph8.7 kmh 30.16 in1021.3 mb 0.00 in0.0 mm 0.00 in/hr0.0 mm/hr 0.02 in0.5 mm
07:15 AM 48.6°F9.2°C 48.6°F9.2°C 100% 3.5 mph NE5.6 kmh NE 6.2 mph10.0 kmh 30.16 in1021.3 mb 0.00 in0.0 mm 0.00 in/hr0.0 mm/hr 0.02 in0.5 mm
07:10 AM 48.7°F9.3°C 48.7°F9.3°C 100% 3.4 mph NE5.5 kmh NE 6.7 mph10.8 kmh 30.16 in1021.3 mb 0.00 in0.0 mm 0.00 in/hr0.0 mm/hr 0.02 in0.5 mm
07:05 AM 48.7°F9.3°C 48.7°F9.3°C 100% 2.6 mph NNE4.2 kmh NNE 5.4 mph8.7 kmh 30.16 in1021.3 mb 0.00 in0.0 mm 0.00 in/hr0.0 mm/hr 0.02 in0.5 mm
07:00 AM 48.7°F9.3°C 48.7°F9.3°C 100% 2.7 mph NNE4.3 kmh NNE 5.5 mph8.9 kmh 30.17 in1021.7 mb 0.00 in0.0 mm 0.00 in/hr0.0 mm/hr 0.02 in0.5 mm
06:55 AM 48.7°F9.3°C 48.7°F9.3°C 100% 1.6 mph NE2.6 kmh NE 3.7 mph6.0 kmh 30.16 in1021.3 mb 0.00 in0.0 mm 0.00 in/hr0.0 mm/hr 0.02 in0.5 mm
06:50 AM 48.7°F9.3°C 48.7°F9.3°C 100% 2.5 mph N4.0 kmh N 5.7 mph9.2 kmh 30.16 in1021.3 mb 0.00 in0.0 mm 0.00 in/hr0.0 mm/hr 0.02 in0.5 mm
06:45 AM 48.7°F9.3°C 48.7°F9.3°C 100% 1.4 mph ENE2.3 kmh ENE 5.5 mph8.9 kmh 30.16 in1021.3 mb 0.00 in0.0 mm 0.00 in/hr0.0 mm/hr 0.02 in0.5 mm
06:40 AM 48.7°F9.3°C 48.7°F9.3°C 100% 1.1 mph N1.8 kmh N 4.9 mph7.9 kmh 30.16 in1021.3 mb 0.00 in0.0 mm 0.00 in/hr0.0 mm/hr 0.02 in0.5 mm
06:35 AM 48.7°F9.3°C 48.7°F9.3°C 100% 2.1 mph NE3.4 kmh NE 5.4 mph8.7 kmh 30.16 in1021.3 mb 0.00 in0.0 mm 0.00 in/hr0.0 mm/hr 0.02 in0.5 mm
06:30 AM 48.7°F9.3°C 48.7°F9.3°C 100% 2.0 mph N3.2 kmh N 5.0 mph8.0 kmh 30.15 in1021.0 mb 0.00 in0.0 mm 0.00 in/hr0.0 mm/hr 0.02 in0.5 mm
06:25 AM 48.7°F9.3°C 48.7°F9.3°C 100% 3.0 mph NNE4.8 kmh NNE 6.7 mph10.8 kmh 30.15 in1021.0 mb 0.00 in0.0 mm 0.00 in/hr0.0 mm/hr 0.02 in0.5 mm
06:20 AM 48.7°F9.3°C 48.7°F9.3°C 100% 1.8 mph NE2.9 kmh NE 7.7 mph12.4 kmh 30.15 in1021.0 mb 0.00 in0.0 mm 0.00 in/hr0.0 mm/hr 0.02 in0.5 mm
06:15 AM 48.7°F9.3°C 48.7°F9.3°C 100% 2.5 mph NE4.0 kmh NE 6.0 mph9.7 kmh 30.15 in1021.0 mb 0.00 in0.0 mm 0.00 in/hr0.0 mm/hr 0.02 in0.5 mm
06:10 AM 48.7°F9.3°C 48.7°F9.3°C 100% 1.9 mph NNE3.1 kmh NNE 7.2 mph11.6 kmh 30.14 in1020.7 mb 0.00 in0.0 mm 0.00 in/hr0.0 mm/hr 0.02 in0.5 mm
06:05 AM 48.7°F9.3°C 48.7°F9.3°C 100% 3.3 mph NE5.3 kmh NE 8.1 mph13.0 kmh 30.14 in1020.7 mb 0.00 in0.0 mm 0.00 in/hr0.0 mm/hr 0.02 in0.5 mm
06:00 AM 48.7°F9.3°C 48.7°F9.3°C 100% 3.6 mph NE5.8 kmh NE 10.0 mph16.1 kmh 30.14 in1020.7 mb 0.00 in0.0 mm 0.00 in/hr0.0 mm/hr 0.02 in0.5 mm
05:55 AM 48.7°F9.3°C 48.7°F9.3°C 100% 3.2 mph NNE5.1 kmh NNE 7.0 mph11.3 kmh 30.14 in1020.7 mb 0.00 in0.0 mm 0.00 in/hr0.0 mm/hr 0.02 in0.5 mm
05:50 AM 48.8°F9.3°C 48.8°F9.3°C 100% 3.2 mph N5.1 kmh N 7.2 mph11.6 kmh 30.14 in1020.7 mb 0.00 in0.0 mm 0.00 in/hr0.0 mm/hr 0.01 in0.3 mm
05:45 AM 49.0°F9.4°C 49.0°F9.4°C 100% 3.6 mph NNE5.8 kmh NNE 7.5 mph12.1 kmh 30.14 in1020.7 mb 0.00 in0.0 mm 0.00 in/hr0.0 mm/hr 0.01 in0.3 mm
05:40 AM 49.1°F9.5°C 49.1°F9.5°C 100% 3.7 mph N6.0 kmh N 7.5 mph12.1 kmh 30.13 in1020.3 mb 0.00 in0.0 mm 0.00 in/hr0.0 mm/hr 0.01 in0.3 mm
05:35 AM 49.1°F9.5°C 49.1°F9.5°C 100% 4.1 mph N6.6 kmh N 10.3 mph16.6 kmh 30.13 in1020.3 mb 0.00 in0.0 mm 0.00 in/hr0.0 mm/hr 0.01 in0.3 mm
05:30 AM 49.2°F9.6°C 49.2°F9.6°C 100% 2.9 mph NE4.7 kmh NE 5.5 mph8.9 kmh 30.14 in1020.7 mb 0.00 in0.0 mm 0.00 in/hr0.0 mm/hr 0.01 in0.3 mm
05:25 AM 49.2°F9.6°C 49.2°F9.6°C 100% 3.0 mph NE4.8 kmh NE 6.0 mph9.7 kmh 30.14 in1020.7 mb 0.00 in0.0 mm 0.00 in/hr0.0 mm/hr 0.01 in0.3 mm
05:20 AM 49.2°F9.6°C 49.2°F9.6°C 100% 1.9 mph N3.1 kmh N 4.7 mph7.6 kmh 30.14 in1020.7 mb 0.00 in0.0 mm 0.00 in/hr0.0 mm/hr 0.01 in0.3 mm
05:15 AM 49.2°F9.6°C 49.2°F9.6°C 100% 1.7 mph NNE2.7 kmh NNE 4.4 mph7.1 kmh 30.14 in1020.7 mb 0.00 in0.0 mm 0.00 in/hr0.0 mm/hr 0.01 in0.3 mm
05:10 AM 49.2°F9.6°C 49.2°F9.6°C 100% 1.3 mph ENE2.1 kmh ENE 4.9 mph7.9 kmh 30.14 in1020.7 mb 0.00 in0.0 mm 0.00 in/hr0.0 mm/hr 0.01 in0.3 mm
05:05 AM 49.1°F9.5°C 49.1°F9.5°C 100% 0.9 mph ENE1.4 kmh ENE 4.0 mph6.4 kmh 30.14 in1020.7 mb 0.00 in0.0 mm 0.00 in/hr0.0 mm/hr 0.01 in0.3 mm
05:00 AM 49.1°F9.5°C 49.1°F9.5°C 100% 2.1 mph NNE3.4 kmh NNE 7.0 mph11.3 kmh 30.14 in1020.7 mb 0.00 in0.0 mm 0.00 in/hr0.0 mm/hr 0.01 in0.3 mm
04:55 AM 49.1°F9.5°C 49.1°F9.5°C 100% 1.7 mph ENE2.7 kmh ENE 5.4 mph8.7 kmh 30.14 in1020.7 mb 0.00 in0.0 mm 0.00 in/hr0.0 mm/hr 0.01 in0.3 mm
04:50 AM 49.1°F9.5°C 49.1°F9.5°C 100% 1.1 mph ENE1.8 kmh ENE 2.7 mph4.3 kmh 30.14 in1020.7 mb 0.00 in0.0 mm 0.00 in/hr0.0 mm/hr 0.01 in0.3 mm
04:45 AM 49.1°F9.5°C 49.1°F9.5°C 100% 2.2 mph NE3.5 kmh NE 6.2 mph10.0 kmh 30.15 in1021.0 mb 0.00 in0.0 mm 0.00 in/hr0.0 mm/hr 0.01 in0.3 mm
04:40 AM 49.1°F9.5°C 49.1°F9.5°C 100% 2.0 mph E3.2 kmh E 4.9 mph7.9 kmh 30.14 in1020.7 mb 0.00 in0.0 mm 0.00 in/hr0.0 mm/hr 0.01 in0.3 mm
04:35 AM 49.1°F9.5°C 49.1°F9.5°C 100% 3.2 mph ENE5.1 kmh ENE 7.0 mph11.3 kmh 30.15 in1021.0 mb 0.00 in0.0 mm 0.00 in/hr0.0 mm/hr 0.01 in0.3 mm
04:30 AM 49.1°F9.5°C 49.1°F9.5°C 100% 1.7 mph NE2.7 kmh NE 5.0 mph8.0 kmh 30.15 in1021.0 mb 0.00 in0.0 mm 0.00 in/hr0.0 mm/hr 0.01 in0.3 mm
04:25 AM 49.1°F9.5°C 49.1°F9.5°C 100% 2.8 mph ESE4.5 kmh ESE 7.9 mph12.7 kmh 30.15 in1021.0 mb 0.00 in0.0 mm 0.00 in/hr0.0 mm/hr 0.01 in0.3 mm
04:20 AM 49.1°F9.5°C 49.1°F9.5°C 100% 1.8 mph E2.9 kmh E 4.7 mph7.6 kmh 30.15 in1021.0 mb 0.00 in0.0 mm 0.00 in/hr0.0 mm/hr 0.01 in0.3 mm
04:15 AM 49.1°F9.5°C 49.1°F9.5°C 100% 1.6 mph NNE2.6 kmh NNE 4.4 mph7.1 kmh 30.15 in1021.0 mb 0.00 in0.0 mm 0.00 in/hr0.0 mm/hr 0.01 in0.3 mm
04:10 AM 49.1°F9.5°C 49.1°F9.5°C 100% 2.1 mph ENE3.4 kmh ENE 5.7 mph9.2 kmh 30.15 in1021.0 mb 0.00 in0.0 mm 0.00 in/hr0.0 mm/hr 0.01 in0.3 mm
04:05 AM 49.1°F9.5°C 49.1°F9.5°C 100% 0.9 mph ENE1.4 kmh ENE 3.7 mph6.0 kmh 30.15 in1021.0 mb 0.00 in0.0 mm 0.00 in/hr0.0 mm/hr 0.01 in0.3 mm
04:00 AM 49.1°F9.5°C 49.1°F9.5°C 100% 1.8 mph E2.9 kmh E 5.5 mph8.9 kmh 30.15 in1021.0 mb 0.00 in0.0 mm 0.00 in/hr0.0 mm/hr 0.01 in0.3 mm
03:55 AM 49.1°F9.5°C 49.1°F9.5°C 100% 1.4 mph E2.3 kmh E 6.2 mph10.0 kmh 30.15 in1021.0 mb 0.00 in0.0 mm 0.00 in/hr0.0 mm/hr 0.01 in0.3 mm
03:50 AM 49.1°F9.5°C 49.1°F9.5°C 100% 1.9 mph NE3.1 kmh NE 5.0 mph8.0 kmh 30.15 in1021.0 mb 0.00 in0.0 mm 0.00 in/hr0.0 mm/hr 0.01 in0.3 mm
03:45 AM 49.1°F9.5°C 49.1°F9.5°C 100% 1.8 mph E2.9 kmh E 5.4 mph8.7 kmh 30.15 in1021.0 mb 0.00 in0.0 mm 0.00 in/hr0.0 mm/hr 0.01 in0.3 mm
03:40 AM 49.2°F9.6°C 49.2°F9.6°C 100% 0.7 mph E1.1 kmh E 3.2 mph5.1 kmh 30.15 in1021.0 mb 0.00 in0.0 mm 0.00 in/hr0.0 mm/hr 0.01 in0.3 mm
03:35 AM 49.2°F9.6°C 49.2°F9.6°C 100% 2.0 mph E3.2 kmh E 5.7 mph9.2 kmh 30.16 in1021.3 mb 0.00 in0.0 mm 0.00 in/hr0.0 mm/hr 0.01 in0.3 mm
03:30 AM 49.2°F9.6°C 49.2°F9.6°C 100% 0.7 mph ESE1.1 kmh ESE 3.0 mph4.8 kmh 30.16 in1021.3 mb 0.00 in0.0 mm 0.00 in/hr0.0 mm/hr 0.01 in0.3 mm
03:25 AM 49.2°F9.6°C 49.2°F9.6°C 100% 2.4 mph N3.9 kmh N 5.7 mph9.2 kmh 30.16 in1021.3 mb 0.00 in0.0 mm 0.00 in/hr0.0 mm/hr 0.01 in0.3 mm
03:20 AM 49.2°F9.6°C 49.2°F9.6°C 100% 2.3 mph NE3.7 kmh NE 6.2 mph10.0 kmh 30.16 in1021.3 mb 0.00 in0.0 mm 0.00 in/hr0.0 mm/hr 0.01 in0.3 mm
03:15 AM 49.2°F9.6°C 49.2°F9.6°C 100% 2.0 mph N3.2 kmh N 6.5 mph10.5 kmh 30.16 in1021.3 mb 0.00 in0.0 mm 0.00 in/hr0.0 mm/hr 0.01 in0.3 mm
03:10 AM 49.3°F9.6°C 49.3°F9.6°C 100% 0.4 mph NNE0.6 kmh NNE 2.7 mph4.3 kmh 30.15 in1021.0 mb 0.00 in0.0 mm 0.00 in/hr0.0 mm/hr 0.01 in0.3 mm
03:05 AM 49.4°F9.7°C 49.4°F9.7°C 100% 3.2 mph NE5.1 kmh NE 6.0 mph9.7 kmh 30.15 in1021.0 mb 0.00 in0.0 mm 0.00 in/hr0.0 mm/hr 0.01 in0.3 mm
03:00 AM 49.5°F9.7°C 49.5°F9.7°C 100% 3.0 mph NNE4.8 kmh NNE 7.0 mph11.3 kmh 30.15 in1021.0 mb 0.00 in0.0 mm 0.00 in/hr0.0 mm/hr 0.01 in0.3 mm
02:55 AM 49.5°F9.7°C 49.5°F9.7°C 100% 2.2 mph NE3.5 kmh NE 4.9 mph7.9 kmh 30.15 in1021.0 mb 0.00 in0.0 mm 0.00 in/hr0.0 mm/hr 0.01 in0.3 mm
02:50 AM 49.5°F9.7°C 49.5°F9.7°C 100% 1.1 mph SE1.8 kmh SE 4.2 mph6.8 kmh 30.15 in1021.0 mb 0.00 in0.0 mm 0.00 in/hr0.0 mm/hr 0.01 in0.3 mm
02:45 AM 49.3°F9.6°C 49.3°F9.6°C 100% 2.0 mph ENE3.2 kmh ENE 5.5 mph8.9 kmh 30.15 in1021.0 mb 0.00 in0.0 mm 0.00 in/hr0.0 mm/hr 0.01 in0.3 mm
02:40 AM 49.4°F9.7°C 49.4°F9.7°C 100% 1.1 mph ESE1.8 kmh ESE 4.7 mph7.6 kmh 30.14 in1020.7 mb 0.00 in0.0 mm 0.00 in/hr0.0 mm/hr 0.01 in0.3 mm
02:35 AM 49.5°F9.7°C 49.5°F9.7°C 100% 1.7 mph E2.7 kmh E 4.0 mph6.4 kmh 30.15 in1021.0 mb 0.00 in0.0 mm 0.00 in/hr0.0 mm/hr 0.01 in0.3 mm
02:30 AM 49.5°F9.7°C 49.5°F9.7°C 100% 1.9 mph ENE3.1 kmh ENE 7.7 mph12.4 kmh 30.15 in1021.0 mb 0.00 in0.0 mm 0.00 in/hr0.0 mm/hr 0.01 in0.3 mm
02:25 AM 49.6°F9.8°C 49.6°F9.8°C 100% 2.4 mph NE3.9 kmh NE 6.2 mph10.0 kmh 30.15 in1021.0 mb 0.00 in0.0 mm 0.00 in/hr0.0 mm/hr 0.01 in0.3 mm
02:20 AM 49.6°F9.8°C 49.6°F9.8°C 100% 1.3 mph E2.1 kmh E 5.4 mph8.7 kmh 30.16 in1021.3 mb 0.00 in0.0 mm 0.00 in/hr0.0 mm/hr 0.01 in0.3 mm
02:15 AM 49.6°F9.8°C 49.6°F9.8°C 100% 2.7 mph E4.3 kmh E 6.7 mph10.8 kmh 30.16 in1021.3 mb 0.00 in0.0 mm 0.00 in/hr0.0 mm/hr 0.01 in0.3 mm
02:10 AM 49.7°F9.8°C 49.7°F9.8°C 100% 1.5 mph E2.4 kmh E 4.9 mph7.9 kmh 30.16 in1021.3 mb 0.00 in0.0 mm 0.00 in/hr0.0 mm/hr 0.01 in0.3 mm
02:05 AM 49.7°F9.8°C 49.7°F9.8°C 100% 1.8 mph ENE2.9 kmh ENE 4.4 mph7.1 kmh 30.17 in1021.7 mb 0.00 in0.0 mm 0.00 in/hr0.0 mm/hr 0.01 in0.3 mm
02:00 AM 49.7°F9.8°C 49.7°F9.8°C 100% 1.0 mph E1.6 kmh E 3.5 mph5.6 kmh 30.17 in1021.7 mb 0.00 in0.0 mm 0.00 in/hr0.0 mm/hr 0.01 in0.3 mm
01:55 AM 49.7°F9.8°C 49.7°F9.8°C 100% 2.1 mph NE3.4 kmh NE 6.2 mph10.0 kmh 30.17 in1021.7 mb 0.00 in0.0 mm 0.00 in/hr0.0 mm/hr 0.00 in0.0 mm
01:50 AM 49.7°F9.8°C 49.7°F9.8°C 100% 2.4 mph E3.9 kmh E 5.4 mph8.7 kmh 30.17 in1021.7 mb 0.00 in0.0 mm 0.00 in/hr0.0 mm/hr 0.00 in0.0 mm
01:45 AM 49.7°F9.8°C 49.7°F9.8°C 100% 1.1 mph ENE1.8 kmh ENE 4.2 mph6.8 kmh 30.17 in1021.7 mb 0.00 in0.0 mm 0.00 in/hr0.0 mm/hr 0.00 in0.0 mm
01:40 AM 49.7°F9.8°C 49.7°F9.8°C 100% 1.4 mph NE2.3 kmh NE 4.7 mph7.6 kmh 30.17 in1021.7 mb 0.00 in0.0 mm 0.00 in/hr0.0 mm/hr 0.00 in0.0 mm
01:35 AM 49.7°F9.8°C 49.7°F9.8°C 100% 2.3 mph ESE3.7 kmh ESE 5.7 mph9.2 kmh 30.17 in1021.7 mb 0.00 in0.0 mm 0.00 in/hr0.0 mm/hr 0.00 in0.0 mm
01:30 AM 49.7°F9.8°C 49.7°F9.8°C 100% 1.4 mph ESE2.3 kmh ESE 4.9 mph7.9 kmh 30.17 in1021.7 mb 0.00 in0.0 mm 0.00 in/hr0.0 mm/hr 0.00 in0.0 mm
01:25 AM 49.7°F9.8°C 49.7°F9.8°C 100% 2.3 mph ENE3.7 kmh ENE 7.7 mph12.4 kmh 30.17 in1021.7 mb 0.00 in0.0 mm 0.00 in/hr0.0 mm/hr 0.00 in0.0 mm
01:20 AM 49.7°F9.8°C 49.7°F9.8°C 100% 1.8 mph ESE2.9 kmh ESE 5.0 mph8.0 kmh 30.17 in1021.7 mb 0.00 in0.0 mm 0.00 in/hr0.0 mm/hr 0.00 in0.0 mm
01:15 AM 49.7°F9.8°C 49.7°F9.8°C 100% 2.5 mph ENE4.0 kmh ENE 7.0 mph11.3 kmh 30.17 in1021.7 mb 0.00 in0.0 mm 0.00 in/hr0.0 mm/hr 0.00 in0.0 mm
01:10 AM 49.7°F9.8°C 49.7°F9.8°C 100% 1.9 mph E3.1 kmh E 5.5 mph8.9 kmh 30.17 in1021.7 mb 0.00 in0.0 mm 0.00 in/hr0.0 mm/hr 0.00 in0.0 mm
01:05 AM 49.8°F9.9°C 49.8°F9.9°C 100% 3.1 mph ENE5.0 kmh ENE 6.0 mph9.7 kmh 30.17 in1021.7 mb 0.00 in0.0 mm 0.00 in/hr0.0 mm/hr 0.00 in0.0 mm
01:00 AM 49.8°F9.9°C 49.8°F9.9°C 100% 1.1 mph ENE1.8 kmh ENE 4.2 mph6.8 kmh 30.16 in1021.3 mb 0.00 in0.0 mm 0.00 in/hr0.0 mm/hr 0.00 in0.0 mm
12:55 AM 49.8°F9.9°C 49.8°F9.9°C 100% 2.5 mph ENE4.0 kmh ENE 8.5 mph13.7 kmh 30.16 in1021.3 mb 0.00 in0.0 mm 0.00 in/hr0.0 mm/hr 0.00 in0.0 mm
12:50 AM 49.8°F9.9°C 49.8°F9.9°C 100% 2.9 mph NE4.7 kmh NE 7.5 mph12.1 kmh 30.16 in1021.3 mb 0.00 in0.0 mm 0.00 in/hr0.0 mm/hr 0.00 in0.0 mm
12:45 AM 49.8°F9.9°C 49.8°F9.9°C 100% 2.5 mph ESE4.0 kmh ESE 7.2 mph11.6 kmh 30.16 in1021.3 mb 0.00 in0.0 mm 0.00 in/hr0.0 mm/hr 0.00 in0.0 mm
12:40 AM 50.0°F10.0°C 50.0°F10.0°C 100% 2.4 mph E3.9 kmh E 6.2 mph10.0 kmh 30.16 in1021.3 mb 0.00 in0.0 mm 0.00 in/hr0.0 mm/hr 0.00 in0.0 mm
12:35 AM 50.0°F10.0°C 50.0°F10.0°C 100% 1.8 mph ENE2.9 kmh ENE 4.0 mph6.4 kmh 30.16 in1021.3 mb 0.00 in0.0 mm 0.00 in/hr0.0 mm/hr 0.00 in0.0 mm
12:30 AM 50.0°F10.0°C 50.0°F10.0°C 100% 2.3 mph ENE3.7 kmh ENE 8.1 mph13.0 kmh 30.17 in1021.7 mb 0.00 in0.0 mm 0.00 in/hr0.0 mm/hr 0.00 in0.0 mm
12:25 AM 50.0°F10.0°C 50.0°F10.0°C 100% 2.4 mph E3.9 kmh E 6.5 mph10.5 kmh 30.17 in1021.7 mb 0.00 in0.0 mm 0.00 in/hr0.0 mm/hr 0.00 in0.0 mm
12:20 AM 50.0°F10.0°C 50.0°F10.0°C 100% 3.4 mph ESE5.5 kmh ESE 6.7 mph10.8 kmh 30.16 in1021.3 mb 0.00 in0.0 mm 0.00 in/hr0.0 mm/hr 0.00 in0.0 mm
12:15 AM 50.1°F10.1°C 50.1°F10.1°C 100% 2.2 mph ENE3.5 kmh ENE 6.2 mph10.0 kmh 30.16 in1021.3 mb 0.00 in0.0 mm 0.00 in/hr0.0 mm/hr 0.00 in0.0 mm
12:10 AM 50.2°F10.1°C 50.2°F10.1°C 100% 2.0 mph ESE3.2 kmh ESE 5.0 mph8.0 kmh 30.16 in1021.3 mb 0.00 in0.0 mm 0.00 in/hr0.0 mm/hr 0.00 in0.0 mm
12:05 AM 50.2°F10.1°C 50.2°F10.1°C 100% 2.8 mph SE4.5 kmh SE 6.2 mph10.0 kmh 30.17 in1021.7 mb 0.00 in0.0 mm 0.00 in/hr0.0 mm/hr 0.00 in0.0 mm
12:00 AM 50.3°F10.2°C 50.3°F10.2°C 100% 3.1 mph ESE5.0 kmh ESE 6.7 mph10.8 kmh 30.17 in1021.7 mb 0.00 in0.0 mm 0.00 in/hr0.0 mm/hr 0.00 in0.0 mm
WeatherForYou.com, LLC is not responsible for any damages or problems caused by this service. Current weather conditions are obtained from the closest station including government and personal stations which may have varying degrees of accuracy. Weather forecasts are derived from the NOAA NDFD and obtained through HAMweather's Aeris Weather API. Like all things, this site belongs to Jesus Christ... He just trusts me to maintain it. If you have any questions or comments email webmaster@weatherforyou.com

Copyright © 2014, WeatherForYou.com LLC. All rights reserved.